createdAt,value
2019-01-24T00:02:27.152Z,23.27
2019-01-24T00:04:57.899Z,24.13
2019-01-24T00:07:28.891Z,22.40
2019-01-24T00:09:58.605Z,24.37
2019-01-24T00:12:29.751Z,22.60
2019-01-24T00:14:59.307Z,23.93
2019-01-24T00:17:29.270Z,23.23
2019-01-24T00:19:59.067Z,24.50
2019-01-24T00:22:28.809Z,24.30
2019-01-24T00:24:58.477Z,24.17
2019-01-24T00:27:30.680Z,22.93
2019-01-24T00:30:00.397Z,24.83
2019-01-24T00:32:30.168Z,23.73
2019-01-24T00:35:03.313Z,23.27
2019-01-24T00:37:34.823Z,24.43
2019-01-24T00:40:06.039Z,24.30
2019-01-24T00:42:35.865Z,24.20
2019-01-24T00:45:06.908Z,24.53
2019-01-24T00:47:39.446Z,25.03
2019-01-24T00:50:10.119Z,24.20
2019-01-24T00:52:42.549Z,23.50
2019-01-24T00:55:13.747Z,22.90
2019-01-24T00:57:43.818Z,22.30
2019-01-24T01:00:20.727Z,23.93
2019-01-24T01:02:50.537Z,23.93
2019-01-24T01:05:20.867Z,24.57
2019-01-24T01:07:50.871Z,22.97
2019-01-24T01:10:20.842Z,23.77
2019-01-24T01:12:50.518Z,23.47
2019-01-24T01:15:20.986Z,24.13
2019-01-24T01:17:50.713Z,24.10
2019-01-24T01:20:22.500Z,23.07
2019-01-24T01:22:53.559Z,22.33
2019-01-24T01:25:24.196Z,22.20
2019-01-24T01:27:54.073Z,22.77
2019-01-24T01:30:25.039Z,23.97
2019-01-24T01:32:55.103Z,25.13
2019-01-24T01:35:26.096Z,21.43
2019-01-24T01:37:56.831Z,23.97
2019-01-24T01:40:26.483Z,23.90
2019-01-24T01:42:56.074Z,22.83
2019-01-24T01:45:25.973Z,22.97
2019-01-24T01:47:56.699Z,23.70
2019-01-24T01:50:26.666Z,22.37
2019-01-24T01:52:56.343Z,23.83
2019-01-24T01:55:27.027Z,23.33
2019-01-24T01:57:58.910Z,24.47
2019-01-24T02:00:28.695Z,24.43
2019-01-24T02:02:58.431Z,23.27
2019-01-24T02:05:28.055Z,23.17
2019-01-24T02:07:59.182Z,21.87
2019-01-24T02:10:28.907Z,22.43
2019-01-24T02:12:58.708Z,23.37
2019-01-24T02:15:28.470Z,24.83
2019-01-24T02:17:58.282Z,25.17
2019-01-24T02:20:29.735Z,24.67
2019-01-24T02:22:59.651Z,25.57
2019-01-24T02:25:30.622Z,26.43
2019-01-24T02:28:03.067Z,24.30
2019-01-24T02:30:33.139Z,25.03
2019-01-24T02:33:03.048Z,26.40
2019-01-24T02:35:32.716Z,25.73
2019-01-24T02:38:02.375Z,26.90
2019-01-24T02:40:34.091Z,24.07
2019-01-24T02:43:05.632Z,24.40
2019-01-24T02:45:36.626Z,26.67
2019-01-24T02:48:06.579Z,25.07
2019-01-24T02:50:36.455Z,26.33
2019-01-24T02:53:07.310Z,24.87
2019-01-24T02:55:37.188Z,24.70
2019-01-24T02:58:06.899Z,25.47
2019-01-24T03:00:36.700Z,25.73
2019-01-24T03:03:06.314Z,25.70
2019-01-24T03:05:36.141Z,27.37
2019-01-24T03:08:05.776Z,26.83
2019-01-24T03:10:35.515Z,25.63
2019-01-24T03:13:05.704Z,24.50
2019-01-24T03:15:36.538Z,26.17
2019-01-24T03:18:06.439Z,26.83
2019-01-24T03:20:37.981Z,24.77
2019-01-24T03:23:08.922Z,25.47
2019-01-24T03:25:38.761Z,25.13
2019-01-24T03:28:08.539Z,24.60
2019-01-24T03:30:39.152Z,26.07
2019-01-24T03:33:08.884Z,26.37
2019-01-24T03:35:40.291Z,25.63
2019-01-24T03:38:09.908Z,26.90
2019-01-24T03:40:39.691Z,26.07
2019-01-24T03:43:10.559Z,25.03
2019-01-24T03:45:41.778Z,27.57
2019-01-24T03:48:14.897Z,24.87
2019-01-24T03:50:46.479Z,26.83
2019-01-24T03:53:16.587Z,25.53
2019-01-24T03:55:47.248Z,27.63
2019-01-24T03:58:16.906Z,26.90
2019-01-24T04:00:49.349Z,26.63
2019-01-24T04:03:20.767Z,27.47
2019-01-24T04:05:50.635Z,26.83
2019-01-24T04:08:20.180Z,27.67
2019-01-24T04:10:49.795Z,29.03
2019-01-24T04:13:20.510Z,27.37
2019-01-24T04:15:50.334Z,29.30
2019-01-24T04:18:20.031Z,25.97
2019-01-24T04:20:52.144Z,27.33
2019-01-24T04:23:22.168Z,27.27
2019-01-24T04:25:52.951Z,26.57
2019-01-24T04:28:23.574Z,25.77
2019-01-24T04:30:56.255Z,27.33
2019-01-24T04:33:26.026Z,26.40
2019-01-24T04:35:55.755Z,27.53
2019-01-24T04:38:27.308Z,26.63
2019-01-24T04:40:56.945Z,28.10
2019-01-24T04:43:27.012Z,28.23
2019-01-24T04:45:56.683Z,28.47
2019-01-24T04:48:26.368Z,28.63
2019-01-24T04:50:56.179Z,29.17
2019-01-24T04:53:27.724Z,29.30
2019-01-24T04:55:57.795Z,28.70
2019-01-24T04:58:27.695Z,29.83
2019-01-24T05:00:58.379Z,28.80
2019-01-24T05:03:28.175Z,27.10
2019-01-24T05:05:58.608Z,28.83
2019-01-24T05:08:28.280Z,30.03
2019-01-24T05:11:00.315Z,30.70
2019-01-24T05:13:30.179Z,27.87
2019-01-24T05:15:59.867Z,27.73
2019-01-24T05:18:33.064Z,29.93
2019-01-24T05:21:02.835Z,29.07
2019-01-24T05:23:32.383Z,29.07
2019-01-24T05:26:02.571Z,28.90
2019-01-24T05:28:32.204Z,27.93
2019-01-24T05:31:04.125Z,30.67
2019-01-24T05:33:36.520Z,25.87
2019-01-24T05:36:06.255Z,27.83
2019-01-24T05:38:37.605Z,27.63
2019-01-24T05:41:07.730Z,29.00
2019-01-24T05:43:37.863Z,28.23
2019-01-24T05:46:10.729Z,27.97
2019-01-24T05:48:40.251Z,29.00
2019-01-24T05:51:13.890Z,27.70
2019-01-24T05:53:44.746Z,30.63
2019-01-24T05:56:14.511Z,30.27
2019-01-24T05:58:47.329Z,30.63
2019-01-24T06:01:19.231Z,31.03
2019-01-24T06:03:49.014Z,29.70
2019-01-24T06:06:18.586Z,40.33
2019-01-24T06:08:51.204Z,28.53
2019-01-24T06:11:20.938Z,31.17
2019-01-24T06:13:50.725Z,32.33
2019-01-24T06:16:20.328Z,32.40
2019-01-24T06:18:51.840Z,32.33
2019-01-24T06:21:21.498Z,28.83
2019-01-24T06:23:51.196Z,32.63
2019-01-24T06:26:20.763Z,31.60
2019-01-24T06:28:50.577Z,30.73
2019-01-24T06:31:20.381Z,28.93
2019-01-24T06:33:50.055Z,32.03
2019-01-24T06:36:19.756Z,31.73
2019-01-24T06:38:49.566Z,31.83
2019-01-24T06:41:22.356Z,31.43
2019-01-24T06:43:52.143Z,30.83
2019-01-24T06:46:21.874Z,31.07
2019-01-24T06:48:51.699Z,31.67
2019-01-24T06:51:21.508Z,29.70
2019-01-24T06:53:51.251Z,31.90
2019-01-24T06:56:21.031Z,31.37
2019-01-24T06:58:52.555Z,30.10
2019-01-24T07:01:23.755Z,29.57
2019-01-24T07:03:54.976Z,30.97
2019-01-24T07:06:24.707Z,30.97
2019-01-24T07:08:54.336Z,31.80
2019-01-24T07:11:24.201Z,34.93
2019-01-24T07:13:53.859Z,33.80
2019-01-24T07:16:23.482Z,32.33
2019-01-24T07:18:54.269Z,32.73
2019-01-24T07:21:24.055Z,32.70
2019-01-24T07:23:55.159Z,33.30
2019-01-24T07:26:24.828Z,32.50
2019-01-24T07:28:56.927Z,31.53
2019-01-24T07:31:27.731Z,33.70
2019-01-24T07:33:57.579Z,33.90
2019-01-24T07:36:27.287Z,33.77
2019-01-24T07:38:57.095Z,34.90
2019-01-24T07:41:27.804Z,33.47
2019-01-24T07:43:58.540Z,32.33
2019-01-24T07:46:30.035Z,30.73
2019-01-24T07:49:01.403Z,32.40
2019-01-24T07:51:31.033Z,33.57
2019-01-24T07:54:00.883Z,32.47
2019-01-24T07:56:35.957Z,33.73
2019-01-24T07:59:08.045Z,33.70
2019-01-24T08:01:38.905Z,33.73
2019-01-24T08:04:10.471Z,33.37
2019-01-24T08:06:40.067Z,34.00
2019-01-24T08:09:09.719Z,32.30
2019-01-24T08:11:39.347Z,32.53
2019-01-24T08:14:08.959Z,33.87
2019-01-24T08:16:38.647Z,32.57
2019-01-24T08:19:09.727Z,32.07
2019-01-24T08:21:39.476Z,31.70
2019-01-24T08:24:11.655Z,33.67
2019-01-24T08:26:42.964Z,33.60
2019-01-24T08:29:12.702Z,34.30
2019-01-24T08:31:43.364Z,33.33
2019-01-24T08:34:13.099Z,33.50
2019-01-24T08:36:43.839Z,34.07
2019-01-24T08:39:13.405Z,33.67
2019-01-24T08:41:44.899Z,33.00
2019-01-24T08:44:14.459Z,31.03
2019-01-24T08:46:45.272Z,33.33
2019-01-24T08:49:15.033Z,30.40
2019-01-24T08:51:45.811Z,30.80
2019-01-24T08:54:17.488Z,31.73
2019-01-24T08:56:47.252Z,32.27
2019-01-24T08:59:16.810Z,28.57
2019-01-24T09:01:47.404Z,27.60
2019-01-24T09:04:17.095Z,26.03
2019-01-24T09:06:46.783Z,29.70
2019-01-24T09:09:16.581Z,26.33
2019-01-24T09:11:47.289Z,23.03
2019-01-24T09:14:18.167Z,26.03
2019-01-24T09:16:48.519Z,24.90
2019-01-24T09:19:18.098Z,23.90
2019-01-24T09:21:48.937Z,22.50
2019-01-24T09:24:18.579Z,23.37
2019-01-24T09:26:48.379Z,27.57
2019-01-24T09:29:19.438Z,24.07
2019-01-24T09:31:49.475Z,23.83
2019-01-24T09:34:19.276Z,22.23
2019-01-24T09:36:51.016Z,22.57
2019-01-24T09:39:20.659Z,20.97
2019-01-24T09:41:52.339Z,21.73
2019-01-24T09:44:22.255Z,19.73
2019-01-24T09:46:52.367Z,18.67
2019-01-24T09:49:22.226Z,18.10
2019-01-24T09:51:53.470Z,19.13
2019-01-24T09:54:26.493Z,20.33
2019-01-24T09:56:56.123Z,18.90
2019-01-24T09:59:27.391Z,19.93
2019-01-24T10:01:59.863Z,18.50
2019-01-24T10:04:33.209Z,17.77
2019-01-24T10:07:03.327Z,16.37
2019-01-24T10:09:33.191Z,19.07
2019-01-24T10:12:04.187Z,17.07
2019-01-24T10:14:34.204Z,16.77
2019-01-24T10:17:03.896Z,18.70
2019-01-24T10:19:35.215Z,21.13
2019-01-24T10:22:05.060Z,17.67
2019-01-24T10:24:35.002Z,18.03
2019-01-24T10:27:04.764Z,18.40
2019-01-24T10:29:34.459Z,17.10
2019-01-24T10:32:04.197Z,17.93
2019-01-24T10:34:34.831Z,18.53
2019-01-24T10:37:05.546Z,18.73
2019-01-24T10:39:35.467Z,17.97
2019-01-24T10:42:05.523Z,17.63
2019-01-24T10:44:35.376Z,16.50
2019-01-24T10:47:05.831Z,17.20
2019-01-24T10:49:37.067Z,18.10
2019-01-24T10:52:08.483Z,17.50
2019-01-24T10:54:38.312Z,17.77
2019-01-24T10:57:08.219Z,16.50
2019-01-24T10:59:38.071Z,18.00
2019-01-24T11:02:09.167Z,17.87
2019-01-24T11:04:38.873Z,17.23
2019-01-24T11:07:08.611Z,17.17
2019-01-24T11:09:38.294Z,17.83
2019-01-24T11:12:10.301Z,17.50
2019-01-24T11:14:40.310Z,16.77
2019-01-24T11:17:14.428Z,15.93
2019-01-24T11:19:44.147Z,13.73
2019-01-24T11:22:13.929Z,14.70
2019-01-24T11:24:44.995Z,14.77
2019-01-24T11:27:15.905Z,11.47
2019-01-24T11:29:47.080Z,12.77
2019-01-24T11:32:16.752Z,15.47
2019-01-24T11:34:46.634Z,14.30
2019-01-24T11:37:17.941Z,17.07
2019-01-24T11:39:47.564Z,15.53
2019-01-24T11:42:17.401Z,15.73
2019-01-24T11:44:49.631Z,15.77
2019-01-24T11:47:19.306Z,17.20
2019-01-24T11:49:51.248Z,16.70
2019-01-24T11:52:21.079Z,17.90
2019-01-24T11:54:50.899Z,17.23
2019-01-24T11:57:23.395Z,20.00
2019-01-24T11:59:55.811Z,20.70
2019-01-24T12:02:25.587Z,21.90
2019-01-24T12:04:55.429Z,21.47
2019-01-24T12:07:25.459Z,22.30
2019-01-24T12:09:55.428Z,21.33
2019-01-24T12:12:25.069Z,20.40
2019-01-24T12:14:57.504Z,20.73
2019-01-24T12:17:27.298Z,20.17
2019-01-24T12:19:57.047Z,19.23
2019-01-24T12:22:26.605Z,18.47
2019-01-24T12:24:57.350Z,19.17
2019-01-24T12:27:30.235Z,17.73
2019-01-24T12:29:59.920Z,17.87
2019-01-24T12:32:30.800Z,18.87
2019-01-24T12:35:00.519Z,16.83
2019-01-24T12:37:30.341Z,17.63
2019-01-24T12:39:59.922Z,18.53
2019-01-24T12:42:29.628Z,17.17
2019-01-24T12:45:00.696Z,17.73
2019-01-24T12:47:30.589Z,18.07
2019-01-24T12:50:00.497Z,16.53
2019-01-24T12:52:31.295Z,18.97
2019-01-24T12:55:01.117Z,17.80
2019-01-24T12:57:32.051Z,16.77
2019-01-24T13:00:06.624Z,16.83
2019-01-24T13:02:36.425Z,17.27
2019-01-24T13:05:08.604Z,18.13
2019-01-24T13:07:38.827Z,16.87
2019-01-24T13:10:09.303Z,18.80
2019-01-24T13:12:40.516Z,17.23
2019-01-24T13:15:10.887Z,18.87
2019-01-24T13:17:40.779Z,18.77
2019-01-24T13:20:13.103Z,16.97
2019-01-24T13:22:42.799Z,16.53
2019-01-24T13:25:26.446Z,16.67
2019-01-24T13:27:56.211Z,17.07
2019-01-24T13:30:29.252Z,16.97
2019-01-24T13:33:01.785Z,16.33
2019-01-24T13:35:31.595Z,16.20
2019-01-24T13:38:01.478Z,16.17
2019-01-24T13:40:32.226Z,15.53
2019-01-24T13:43:02.744Z,15.33
2019-01-24T13:45:39.638Z,15.97
2019-01-24T13:48:10.170Z,15.80
2019-01-24T13:50:41.731Z,13.83
2019-01-24T13:53:12.878Z,15.13
2019-01-24T13:55:43.750Z,14.13
2019-01-24T13:58:17.076Z,14.33
2019-01-24T14:00:46.831Z,14.83
2019-01-24T14:03:42.042Z,15.50
2019-01-24T14:06:09.333Z,15.00
2019-01-24T14:08:40.412Z,14.67
2019-01-24T14:11:18.016Z,15.43
2019-01-24T14:13:44.223Z,13.97
2019-01-24T14:16:13.864Z,13.67
2019-01-24T14:18:43.527Z,15.47
2019-01-24T14:21:13.177Z,15.80
2019-01-24T14:23:42.916Z,15.23
2019-01-24T14:26:12.600Z,16.80
2019-01-24T14:28:42.195Z,17.83
2019-01-24T14:31:13.396Z,17.10
2019-01-24T14:33:43.255Z,16.43
2019-01-24T14:36:12.883Z,17.73
2019-01-24T14:38:42.702Z,17.87
2019-01-24T14:41:12.440Z,17.50
2019-01-24T14:43:42.138Z,18.83
2019-01-24T14:46:11.727Z,17.10
2019-01-24T14:48:41.372Z,18.13
2019-01-24T14:51:11.070Z,17.30
2019-01-24T14:53:41.814Z,19.60
2019-01-24T14:56:12.691Z,17.47
2019-01-24T14:58:42.639Z,19.00
2019-01-24T15:01:18.250Z,18.37
2019-01-24T15:03:48.088Z,18.57
2019-01-24T15:06:18.955Z,18.30
2019-01-24T15:08:51.292Z,18.60
2019-01-24T15:11:20.931Z,17.73
2019-01-24T15:13:50.624Z,17.90
2019-01-24T15:16:20.515Z,18.13
2019-01-24T15:18:50.459Z,17.57
2019-01-24T15:21:21.201Z,20.23
2019-01-24T15:23:50.828Z,19.87
2019-01-24T15:26:21.501Z,19.77
2019-01-24T15:28:51.387Z,20.77
2019-01-24T15:31:21.116Z,20.00
2019-01-24T15:33:51.201Z,21.87
2019-01-24T15:36:24.000Z,19.57
2019-01-24T15:38:53.615Z,22.23
2019-01-24T15:41:23.463Z,21.57
2019-01-24T15:43:53.255Z,24.03
2019-01-24T15:46:23.011Z,23.53
2019-01-24T15:48:52.717Z,24.57
2019-01-24T15:51:24.192Z,24.77
2019-01-24T15:53:53.923Z,23.43
2019-01-24T15:56:23.712Z,24.60
2019-01-24T15:58:53.775Z,24.70
2019-01-24T16:01:23.508Z,23.97
2019-01-24T16:03:55.035Z,24.67
2019-01-24T16:06:25.896Z,24.17
2019-01-24T16:08:55.591Z,25.07
2019-01-24T16:11:25.225Z,26.47
2019-01-24T16:14:00.996Z,24.43
2019-01-24T16:16:31.811Z,26.37
2019-01-24T16:19:02.560Z,27.97
2019-01-24T16:21:33.326Z,26.87
2019-01-24T16:24:04.559Z,25.53
2019-01-24T16:26:34.387Z,27.60
2019-01-24T16:29:04.224Z,27.07
2019-01-24T16:31:33.946Z,27.43
2019-01-24T16:34:05.225Z,27.30
2019-01-24T16:36:34.914Z,27.97
2019-01-24T16:39:08.024Z,26.63
2019-01-24T16:41:37.904Z,26.67
2019-01-24T16:44:08.528Z,27.07
2019-01-24T16:46:38.345Z,27.03
2019-01-24T16:49:08.130Z,27.83
2019-01-24T16:51:38.057Z,26.00
2019-01-24T16:54:11.014Z,27.90
2019-01-24T16:56:42.523Z,25.50
2019-01-24T16:59:13.811Z,27.10
2019-01-24T17:01:43.691Z,26.57
2019-01-24T17:04:14.126Z,27.33
2019-01-24T17:06:44.983Z,27.47
2019-01-24T17:09:16.066Z,26.90
2019-01-24T17:11:48.598Z,27.97
2019-01-24T17:14:22.297Z,27.70
2019-01-24T17:16:49.740Z,26.10
2019-01-24T17:19:19.607Z,28.10
2019-01-24T17:21:49.380Z,26.70
2019-01-24T17:24:19.053Z,26.70
2019-01-24T17:26:50.515Z,26.50
2019-01-24T17:29:20.359Z,26.57
2019-01-24T17:31:51.101Z,28.10
2019-01-24T17:34:20.944Z,27.97
2019-01-24T17:36:51.848Z,26.40
2019-01-24T17:39:20.890Z,27.67
2019-01-24T17:41:50.519Z,26.27
2019-01-24T17:44:20.220Z,24.60
2019-01-24T17:46:50.163Z,28.30
2019-01-24T17:49:19.785Z,26.47
2019-01-24T17:51:49.581Z,28.03
2019-01-24T17:54:19.255Z,28.77
2019-01-24T17:56:49.000Z,28.50
2019-01-24T17:59:18.591Z,27.73
2019-01-24T18:01:48.195Z,28.40
2019-01-24T18:04:21.713Z,29.03
2019-01-24T18:06:51.111Z,31.13
2019-01-24T18:09:20.749Z,28.77
2019-01-24T18:11:50.593Z,28.63
2019-01-24T18:14:20.370Z,29.03
2019-01-24T18:16:50.617Z,30.50
2019-01-24T18:19:20.379Z,28.77
2019-01-24T18:21:50.045Z,28.27
2019-01-24T18:24:19.859Z,31.27
2019-01-24T18:26:49.487Z,28.97
2019-01-24T18:29:19.085Z,29.70
2019-01-24T18:31:48.843Z,28.10
2019-01-24T18:34:21.683Z,27.23
2019-01-24T18:36:53.267Z,29.13
2019-01-24T18:39:23.119Z,27.47
2019-01-24T18:41:54.398Z,29.03
2019-01-24T18:44:25.759Z,28.70
2019-01-24T18:46:55.590Z,27.80
2019-01-24T18:49:25.441Z,27.93
2019-01-24T18:51:57.867Z,26.63
2019-01-24T18:54:28.989Z,29.03
2019-01-24T18:56:58.883Z,28.47
2019-01-24T18:59:29.814Z,27.83
2019-01-24T19:02:01.040Z,26.50
2019-01-24T19:04:30.711Z,27.70
2019-01-24T19:07:02.588Z,28.57
2019-01-24T19:09:34.170Z,28.37
2019-01-24T19:12:03.969Z,27.67
2019-01-24T19:14:33.717Z,28.73
2019-01-24T19:17:03.607Z,28.23
2019-01-24T19:19:33.267Z,29.13
2019-01-24T19:22:02.957Z,28.43
2019-01-24T19:24:34.129Z,26.30
2019-01-24T19:27:04.015Z,27.77
2019-01-24T19:29:35.503Z,26.80
2019-01-24T19:32:08.622Z,28.63
2019-01-24T19:34:38.419Z,27.33
2019-01-24T19:37:08.175Z,26.67
2019-01-24T19:39:39.000Z,25.97
2019-01-24T19:42:11.916Z,26.47
2019-01-24T19:44:41.552Z,26.67
2019-01-24T19:47:11.451Z,26.00
2019-01-24T19:49:41.235Z,24.30
2019-01-24T19:52:13.549Z,26.27
2019-01-24T19:54:43.361Z,26.23
2019-01-24T19:57:12.976Z,32.25
2019-01-24T19:59:44.400Z,25.33
2019-01-24T20:02:15.961Z,25.03
2019-01-24T20:04:45.792Z,24.30
2019-01-24T20:07:15.501Z,25.30
2019-01-24T20:09:46.357Z,26.53
2019-01-24T20:12:17.482Z,25.93
2019-01-24T20:14:47.192Z,23.93
2019-01-24T20:17:17.043Z,25.03
2019-01-24T20:19:49.643Z,27.07
2019-01-24T20:22:21.676Z,26.40
2019-01-24T20:24:52.902Z,25.70
2019-01-24T20:27:23.723Z,26.37
2019-01-24T20:29:53.602Z,25.80
2019-01-24T20:32:23.202Z,26.90
2019-01-24T20:34:52.943Z,27.33
2019-01-24T20:37:24.123Z,26.37
2019-01-24T20:39:53.898Z,25.17
2019-01-24T20:42:25.533Z,27.03
2019-01-24T20:44:55.296Z,27.47
2019-01-24T20:47:25.189Z,26.97
2019-01-24T20:49:56.552Z,27.53
2019-01-24T20:52:26.267Z,26.80
2019-01-24T20:54:56.965Z,26.90
2019-01-24T20:57:26.653Z,25.10
2019-01-24T20:59:58.235Z,27.63
2019-01-24T21:02:27.843Z,27.83
2019-01-24T21:04:59.429Z,27.23
2019-01-24T21:07:31.451Z,32.07
2019-01-24T21:10:01.152Z,29.13
2019-01-24T21:12:32.335Z,29.00
2019-01-24T21:15:02.024Z,29.27
2019-01-24T21:17:32.678Z,29.17
2019-01-24T21:20:02.239Z,28.83
2019-01-24T21:22:31.823Z,30.83
2019-01-24T21:25:01.419Z,30.43
2019-01-24T21:27:31.879Z,30.47
2019-01-24T21:30:01.582Z,29.80
2019-01-24T21:32:31.887Z,29.83
2019-01-24T21:35:01.630Z,29.07
2019-01-24T21:37:32.780Z,31.90
2019-01-24T21:40:03.689Z,30.97
2019-01-24T21:42:33.686Z,32.47
2019-01-24T21:45:03.999Z,31.40
2019-01-24T21:47:33.747Z,31.17
2019-01-24T21:50:04.803Z,31.07
2019-01-24T21:52:35.685Z,31.00
2019-01-24T21:55:06.969Z,30.50
2019-01-24T21:57:39.279Z,30.63
2019-01-24T22:00:10.868Z,30.13
2019-01-24T22:02:41.323Z,31.23
2019-01-24T22:05:12.248Z,29.97
2019-01-24T22:07:41.880Z,29.83
2019-01-24T22:10:14.207Z,30.23
2019-01-24T22:12:43.808Z,32.67
2019-01-24T22:15:16.075Z,32.03
2019-01-24T22:17:47.236Z,30.17
2019-01-24T22:20:17.659Z,30.10
2019-01-24T22:22:47.948Z,30.97
2019-01-24T22:25:20.152Z,31.63
2019-01-24T22:27:49.719Z,30.73
2019-01-24T22:30:22.499Z,29.10
2019-01-24T22:32:52.243Z,30.20
2019-01-24T22:35:22.034Z,28.90
2019-01-24T22:37:51.694Z,31.13
2019-01-24T22:40:23.941Z,28.70
2019-01-24T22:42:55.330Z,29.50
2019-01-24T22:45:25.551Z,27.30
2019-01-24T22:47:55.391Z,29.30
2019-01-24T22:50:25.399Z,28.77
2019-01-24T22:52:55.447Z,28.33
2019-01-24T22:55:25.075Z,28.60
2019-01-24T22:57:54.793Z,29.03
2019-01-24T23:01:03.103Z,28.63
2019-01-24T23:03:36.475Z,27.67
2019-01-24T23:06:06.447Z,28.33
2019-01-24T23:08:36.063Z,27.43
2019-01-24T23:11:06.555Z,27.63
2019-01-24T23:13:36.219Z,26.63
2019-01-24T23:16:06.403Z,28.27
2019-01-24T23:18:37.649Z,28.37
2019-01-24T23:21:07.687Z,26.57
2019-01-24T23:23:39.115Z,27.17
2019-01-24T23:26:08.980Z,27.10
2019-01-24T23:28:40.454Z,27.37
2019-01-24T23:31:11.992Z,25.60
2019-01-24T23:33:41.596Z,27.57
2019-01-24T23:36:11.851Z,25.73
2019-01-24T23:38:41.698Z,26.27
2019-01-24T23:41:11.451Z,28.33
2019-01-24T23:43:41.211Z,27.87
2019-01-24T23:46:10.943Z,28.93
2019-01-24T23:48:40.644Z,26.17
2019-01-24T23:51:13.450Z,27.70
2019-01-24T23:53:43.174Z,27.27
2019-01-24T23:56:13.982Z,26.07
2019-01-24T23:58:43.875Z,26.47
